Hovedside
METAR-TAF:

METAR-TAF

Lufthavner :

Pearson Field

Vancouver, Washington, USA

breddegrad: 45-37-24N, lengdegrad: 122-39-23W, høyde over havet: 7 m

Gjeldene værobservasjon

Denne rapporten ble laget for 54 minutter siden, klokken 22:53 UTC
Vind 14 kt fra Øst med vindkast opp mot 19 kt
Temperatur 34°C
Luftfuktighet 18%
Trykk 1014 hPa
Sikt: 11.3 km
Skyfri himmel

METAR: KVUO 212253Z AUTO 10014G19KT 7SM CLR 34/06 A2993 RMK AO2 SLP135 T03390056

Tid: 16:47 (23:47 UTC)


TAF: fraværende

Værobservasjoner og værvarsel for over 4000 flyplasser (METAR- og TAF-rapporter).

Tilgjengelige stasjoner er representert av de røde og gule prikkene på kartet.

Hold musepekeren over prikken for å se navnet på stasjonen.

Klikk så for å se værobservasjoner og -varsler.

For å forandre kartet kan du klikke på den grønne knappen med svart kryss for å zoome inn, på den grønne knappen med strek for å zoome ut, eller på de grønne pilene for å se tilstøtende kart.


METAR-TAF: